Bright Sailing — 9LU2534 — position and weather

sailwx.info

Track history (hours):
 
Tides and Currents Weather Stations Pressure Air Temp Water Temp Dewpoint Dewpoint Depression Visibility Wind Speed Wind Dir Waves Ship Positions

Bright Sailing

Last reported at 2017-Dec-17 22:29 UTC. Time now 2017-Dec-18 12:31 UTC.
Position N 33°30' E 129°58'.

Length 76 m; draft 3 m.

Type: Cargo ship. MMSI: 667001731.

Date/timePositionNaut miles runAvg speedWind from/ knotsBaromVisibWave heightAir tempDewpointWater temp
2017-Dec-17 22:29N 33°30' E 129°58'0 0.0
2017-Dec-17 20:26N 33°30' E 129°58'4 0.2
2017-Dec-17 02:17N 33°33' E 129°59'5 9.7
2017-Dec-17 01:49N 33°37' E 129°55'3 9.3
2017-Dec-17 01:30N 33°38' E 129°52'  
2017-Dec-08 22:23N 33°41' E 129°52'4 9.1
2017-Dec-08 21:59N 33°42' E 129°56'4 8.4
2017-Dec-08 21:28N 33°44' E 130°01'4 8.4
2017-Dec-08 20:57N 33°47' E 130°05'4 8.1
2017-Dec-08 20:30N 33°49' E 130°09'4 7.8
2017-Dec-08 20:00N 33°51' E 130°13'4 7.4
2017-Dec-08 19:30N 33°53' E 130°17'4 7.2
2017-Dec-08 19:00N 33°55' E 130°20'3 6.6
2017-Dec-08 18:31N 33°56' E 130°24'3 6.6
2017-Dec-08 18:00N 33°58' E 130°27'3 6.8
2017-Dec-08 17:30N 33°59' E 130°31'3 6.8
2017-Dec-08 17:00N 34°00' E 130°35'3 6.8
2017-Dec-08 16:31N 34°01' E 130°39'4 7.1
2017-Dec-08 16:00N 34°02' E 130°43'3 6.9
2017-Dec-08 15:31N 34°02' E 130°47'4 7.3
2017-Dec-08 15:01N 34°00' E 130°51'4 7.1
2017-Dec-08 14:30N 33°57' E 130°52'4 7.1
2017-Dec-08 14:00N 33°55' E 130°56'4 7.9
2017-Dec-08 13:31N 33°58' E 130°58'3 6.7
2017-Dec-08 13:01N 33°58' E 131°02'4 8.8
2017-Dec-08 12:31N 33°56' E 131°07'4 9.0
2017-Dec-08 12:01N 33°53' E 131°11'5 8.9
2017-Dec-08 11:30N 33°51' E 131°16'4 8.9
2017-Dec-08 11:01N 33°50' E 131°21'4 8.8
2017-Dec-08 10:31N 33°49' E 131°26'4 8.6
2017-Dec-08 10:00N 33°49' E 131°31'4 8.3
2017-Dec-08 09:30N 33°48' E 131°36'4 7.8
2017-Dec-08 09:01N 33°47' E 131°41'4 7.5
2017-Dec-08 08:30N 33°46' E 131°45'4 7.3
2017-Dec-08 07:57N 33°45' E 131°50'39 7.0
2017-Dec-08 02:28N 33°53' E 132°36'3 6.6
2017-Dec-08 02:00N 33°55' E 132°38'3 6.3
2017-Dec-08 01:30N 33°57' E 132°41'3 6.4
2017-Dec-08 01:01N 33°59' E 132°44'  
Track history (hours):
 
Tides and Currents Weather Stations Pressure Air Temp Water Temp Dewpoint Dewpoint Depression Visibility Wind Speed Wind Dir Waves Ship Positions

Bright Sailing

Last reported at 2017-Dec-17 22:29 UTC. Time now 2017-Dec-18 12:31 UTC.
Position N 33°30' E 129°58'.

Length 76 m; draft 3 m.

Type: Cargo ship. MMSI: 667001731.

Date/timePositionNaut miles runAvg speedWind from/ knotsBaromVisibWave heightAir tempDewpointWater temp
2017-Dec-17 22:29N 33°30' E 129°58'0 0.0
2017-Dec-17 20:26N 33°30' E 129°58'4 0.2
2017-Dec-17 02:17N 33°33' E 129°59'5 9.7
2017-Dec-17 01:49N 33°37' E 129°55'3 9.3
2017-Dec-17 01:30N 33°38' E 129°52'  
2017-Dec-08 22:23N 33°41' E 129°52'4 9.1
2017-Dec-08 21:59N 33°42' E 129°56'4 8.4
2017-Dec-08 21:28N 33°44' E 130°01'4 8.4
2017-Dec-08 20:57N 33°47' E 130°05'4 8.1
2017-Dec-08 20:30N 33°49' E 130°09'4 7.8
2017-Dec-08 20:00N 33°51' E 130°13'4 7.4
2017-Dec-08 19:30N 33°53' E 130°17'4 7.2
2017-Dec-08 19:00N 33°55' E 130°20'3 6.6
2017-Dec-08 18:31N 33°56' E 130°24'3 6.6
2017-Dec-08 18:00N 33°58' E 130°27'3 6.8
2017-Dec-08 17:30N 33°59' E 130°31'3 6.8
2017-Dec-08 17:00N 34°00' E 130°35'3 6.8
2017-Dec-08 16:31N 34°01' E 130°39'4 7.1
2017-Dec-08 16:00N 34°02' E 130°43'3 6.9
2017-Dec-08 15:31N 34°02' E 130°47'4 7.3
2017-Dec-08 15:01N 34°00' E 130°51'4 7.1
2017-Dec-08 14:30N 33°57' E 130°52'4 7.1
2017-Dec-08 14:00N 33°55' E 130°56'4 7.9
2017-Dec-08 13:31N 33°58' E 130°58'3 6.7
2017-Dec-08 13:01N 33°58' E 131°02'4 8.8
2017-Dec-08 12:31N 33°56' E 131°07'4 9.0
2017-Dec-08 12:01N 33°53' E 131°11'5 8.9
2017-Dec-08 11:30N 33°51' E 131°16'4 8.9
2017-Dec-08 11:01N 33°50' E 131°21'4 8.8
2017-Dec-08 10:31N 33°49' E 131°26'4 8.6
2017-Dec-08 10:00N 33°49' E 131°31'4 8.3
2017-Dec-08 09:30N 33°48' E 131°36'4 7.8
2017-Dec-08 09:01N 33°47' E 131°41'4 7.5
2017-Dec-08 08:30N 33°46' E 131°45'4 7.3
2017-Dec-08 07:57N 33°45' E 131°50'39 7.0
2017-Dec-08 02:28N 33°53' E 132°36'3 6.6
2017-Dec-08 02:00N 33°55' E 132°38'3 6.3
2017-Dec-08 01:30N 33°57' E 132°41'3 6.4
2017-Dec-08 01:01N 33°59' E 132°44'  

Dump ship's entire track history